Time;durP1;ratioP1;P1;durP2;ratioP2;P2;SDS_P1;SDS_P2;PMS_P1;PMS_P2;Temp;Humidity;BMP_temperature;BMP_pressure;BME280_temperature;BME280_humidity;BME280_pressure;Samples;Min_cycle;Max_cycle;Signal;HPM_P1;HPM_P2
2021/01/20 00:01:00;;;;;;;36.28;13.75;;;3.70;99.90;;;;;;6247571;23;20440;-76
2021/01/20 00:03:27;;;;;;;5.63;3.17;;;3.70;99.90;;;;;;6220652;23;20004;-76
2021/01/20 00:05:53;;;;;;;4.22;2.53;;;3.70;99.90;;;;;;6247460;22;20000;-76
2021/01/20 00:08:18;;;;;;;4.32;2.28;;;3.70;99.90;;;;;;6220463;23;20355;-76
2021/01/20 00:10:46;;;;;;;4.97;2.58;;;3.70;99.90;;;;;;6247511;23;19996;-76
2021/01/20 00:13:12;;;;;;;5.32;2.42;;;3.60;99.90;;;;;;6220693;23;20000;-76
2021/01/20 00:15:37;;;;;;;7.03;4.15;;;3.60;99.90;;;;;;6247342;23;20000;-76
2021/01/20 00:18:03;;;;;;;8.32;3.55;;;3.60;99.90;;;;;;6220373;23;20008;-76
2021/01/20 00:20:29;;;;;;;6.30;2.95;;;3.50;99.90;;;;;;6247608;23;20005;-76
2021/01/20 00:22:54;;;;;;;6.57;3.15;;;3.50;99.90;;;;;;6247396;23;20340;-76
2021/01/20 00:25:20;;;;;;;5.68;3.00;;;3.50;99.90;;;;;;6249438;23;20000;-77
2021/01/20 00:27:45;;;;;;;4.82;3.00;;;3.40;99.90;;;;;;6222040;23;20012;-76
2021/01/20 00:30:12;;;;;;;6.43;3.17;;;3.30;99.90;;;;;;6220470;23;20083;-76
2021/01/20 00:32:38;;;;;;;5.95;2.72;;;3.20;99.90;;;;;;6220440;23;20026;-76
2021/01/20 00:35:11;;;;;;;5.70;2.78;;;3.20;99.90;;;;;;6220447;23;20004;-76
2021/01/20 00:37:37;;;;;;;5.80;3.17;;;3.10;99.90;;;;;;6245512;22;20008;-76
2021/01/20 00:40:04;;;;;;;6.63;3.70;;;3.00;99.90;;;;;;6247264;23;20000;-76
2021/01/20 00:42:29;;;;;;;10.85;4.88;;;2.90;99.90;;;;;;6245529;23;20031;-77
2021/01/20 00:44:55;;;;;;;9.80;4.30;;;2.80;99.90;;;;;;6220258;23;20004;-77
2021/01/20 00:47:21;;;;;;;6.13;3.47;;;2.70;99.90;;;;;;6219904;23;20004;-77
2021/01/20 00:49:46;;;;;;;7.13;3.88;;;2.60;99.90;;;;;;6220281;23;20028;-77
2021/01/20 00:52:12;;;;;;;7.78;4.55;;;2.50;99.90;;;;;;6220097;23;20057;-77
2021/01/20 00:54:37;;;;;;;11.30;5.57;;;2.40;99.90;;;;;;6247064;23;20011;-76
2021/01/20 00:57:03;;;;;;;7.82;3.65;;;2.30;99.90;;;;;;6246919;22;19996;-76
2021/01/20 00:59:28;;;;;;;7.63;2.75;;;2.20;99.90;;;;;;6220214;23;20316;-76
2021/01/20 01:01:57;;;;;;;6.13;2.50;;;2.20;99.90;;;;;;6247313;23;20004;-76
2021/01/20 01:04:24;;;;;;;3.60;2.45;;;2.20;99.90;;;;;;6220026;23;20011;-76
2021/01/20 01:06:49;;;;;;;3.80;2.53;;;2.20;99.90;;;;;;6246877;22;20000;-76
2021/01/20 01:09:15;;;;;;;4.40;2.60;;;2.20;99.90;;;;;;6219907;23;20008;-77
2021/01/20 01:11:40;;;;;;;5.15;2.65;;;2.10;99.90;;;;;;6246790;23;19997;-77
2021/01/20 01:14:06;;;;;;;5.55;2.75;;;2.10;99.90;;;;;;6220052;23;20004;-76
2021/01/20 01:16:32;;;;;;;6.03;3.15;;;2.10;99.90;;;;;;6246680;22;19996;-77
2021/01/20 01:18:57;;;;;;;4.53;2.55;;;2.00;99.90;;;;;;6220018;23;20003;-76
2021/01/20 01:21:23;;;;;;;6.68;3.30;;;2.00;99.90;;;;;;6219913;23;20001;-77
2021/01/20 01:23:48;;;;;;;5.78;3.60;;;2.00;99.90;;;;;;6219931;23;20012;-76
2021/01/20 01:26:14;;;;;;;6.68;3.63;;;2.00;99.90;;;;;;6246650;22;20130;-77
2021/01/20 01:28:39;;;;;;;13.25;6.63;;;2.00;99.90;;;;;;6219704;23;20011;-76
2021/01/20 01:31:05;;;;;;;14.43;6.45;;;2.00;99.90;;;;;;6247005;23;20000;-77
2021/01/20 01:33:31;;;;;;;10.43;5.68;;;1.90;99.90;;;;;;6219801;23;20038;-77
2021/01/20 01:35:58;;;;;;;12.77;6.13;;;1.80;99.90;;;;;;6246566;22;20023;-76
2021/01/20 01:38:23;;;;;;;10.27;5.28;;;1.70;99.90;;;;;;6246694;23;20004;-76
2021/01/20 01:40:49;;;;;;;11.00;6.60;;;1.60;99.90;;;;;;6246729;23;20460;-77
2021/01/20 01:43:15;;;;;;;11.32;6.10;;;1.60;99.90;;;;;;6246745;23;20507;-77
2021/01/20 01:45:41;;;;;;;11.70;6.25;;;1.50;99.90;;;;;;6220085;23;20475;-76
2021/01/20 01:48:06;;;;;;;12.70;6.20;;;1.40;99.90;;;;;;6246341;22;20032;-76
2021/01/20 01:50:32;;;;;;;9.20;5.88;;;1.40;99.90;;;;;;6246709;23;20000;-76
2021/01/20 01:52:58;;;;;;;9.10;4.93;;;1.40;99.90;;;;;;6219840;23;20039;-76
2021/01/20 01:55:23;;;;;;;10.07;5.63;;;1.30;99.90;;;;;;6246701;23;20321;-77
2021/01/20 01:57:49;;;;;;;9.50;5.05;;;1.30;99.90;;;;;;6246443;22;20004;-76
2021/01/20 02:00:15;;;;;;;11.30;5.82;;;1.20;99.90;;;;;;6246543;23;20031;-77
2021/01/20 02:02:41;;;;;;;11.23;5.60;;;1.20;99.90;;;;;;6247180;23;20182;-77
2021/01/20 02:05:08;;;;;;;11.50;5.72;;;1.10;99.90;;;;;;6219989;23;20039;-77
2021/01/20 02:07:34;;;;;;;8.02;4.80;;;1.10;99.90;;;;;;6246868;22;20005;-76
2021/01/20 02:10:03;;;;;;;9.80;5.10;;;1.10;99.90;;;;;;6247428;23;20000;-77
2021/01/20 02:12:47;;;;;;;10.95;5.18;;;1.10;99.90;;;;;;6245953;23;20034;-77
2021/01/20 02:15:19;;;;;;;10.20;5.03;;;1.00;99.90;;;;;;6247521;23;20011;-77
2021/01/20 02:18:03;;;;;;;7.63;4.97;;;1.00;99.90;;;;;;6247339;22;20027;-77
2021/01/20 02:20:43;;;;;;;7.60;5.00;;;0.90;99.90;;;;;;6247310;23;20004;-77
2021/01/20 02:23:15;;;;;;;9.35;5.57;;;0.90;99.90;;;;;;6245917;23;20342;-77
2021/01/20 02:26:18;;;;;;;9.20;5.53;;;0.80;99.90;;;;;;6247854;23;20332;-77
2021/01/20 02:28:52;;;;;;;9.07;4.55;;;0.80;99.90;;;;;;6247279;23;20011;-77
2021/01/20 02:31:22;;;;;;;8.35;4.43;;;0.80;99.90;;;;;;6247708;23;20024;-77
2021/01/20 02:33:50;;;;;;;9.00;4.93;;;0.80;99.90;;;;;;6247914;23;20024;-77
2021/01/20 02:36:20;;;;;;;7.03;4.70;;;0.90;99.90;;;;;;6245392;22;20028;-77
2021/01/20 02:38:47;;;;;;;7.32;4.45;;;1.00;99.90;;;;;;6246987;23;20000;-77
2021/01/20 02:41:27;;;;;;;5.82;4.18;;;1.10;99.90;;;;;;6246778;23;20059;-77
2021/01/20 02:43:54;;;;;;;6.95;4.13;;;1.20;99.90;;;;;;6220459;23;20008;-77
2021/01/20 02:46:22;;;;;;;8.63;4.75;;;1.20;99.90;;;;;;6246832;22;20016;-77
2021/01/20 02:48:49;;;;;;;11.10;5.55;;;1.20;99.90;;;;;;6247187;23;20019;-77
2021/01/20 02:51:21;;;;;;;10.93;6.28;;;1.20;99.90;;;;;;6247251;23;19997;-77
2021/01/20 02:53:47;;;;;;;;;;;1.20;99.90;;;;;;6246185;23;20054;-77
2021/01/20 02:56:16;;;;;;;8.73;5.40;;;1.20;99.90;;;;;;6221710;23;19899;-77
2021/01/20 02:58:46;;;;;;;8.43;5.50;;;1.10;99.90;;;;;;6246821;23;20321;-77
2021/01/20 03:01:13;;;;;;;12.27;7.43;;;1.10;99.90;;;;;;6245065;23;20004;-77
2021/01/20 03:03:40;;;;;;;8.25;5.93;;;1.00;99.90;;;;;;6246787;23;20004;-75
2021/01/20 03:06:07;;;;;;;8.77;5.72;;;1.00;99.90;;;;;;6246483;22;20014;-77
2021/01/20 03:08:33;;;;;;;9.77;6.00;;;1.00;99.90;;;;;;6246488;23;20466;-77
2021/01/20 03:11:05;;;;;;;7.78;5.68;;;0.90;99.90;;;;;;6244922;23;20004;-77
2021/01/20 03:13:36;;;;;;;7.30;5.15;;;0.90;99.90;;;;;;6244845;23;20027;-77
2021/01/20 03:16:03;;;;;;;8.63;5.45;;;1.00;99.90;;;;;;6245567;22;19996;-77
2021/01/20 03:18:28;;;;;;;7.05;4.60;;;1.00;99.90;;;;;;6219298;23;20037;-77
2021/01/20 03:20:54;;;;;;;7.47;5.00;;;0.90;99.90;;;;;;6219471;23;20031;-77
2021/01/20 03:23:19;;;;;;;6.72;4.35;;;0.80;99.90;;;;;;6219397;23;20011;-77
2021/01/20 03:25:45;;;;;;;6.35;4.43;;;0.80;99.90;;;;;;6219268;23;20372;-77
2021/01/20 03:28:10;;;;;;;6.85;4.10;;;0.70;99.90;;;;;;6246217;23;20087;-76
2021/01/20 03:30:36;;;;;;;7.28;4.40;;;0.70;99.90;;;;;;6219083;23;20083;-77
2021/01/20 03:33:02;;;;;;;7.90;4.85;;;0.70;99.90;;;;;;6219227;23;20015;-76
2021/01/20 03:35:27;;;;;;;5.65;4.28;;;0.60;99.90;;;;;;6245836;23;19997;-77
2021/01/20 03:37:53;;;;;;;6.30;4.18;;;0.60;99.90;;;;;;6246132;22;19996;-77
2021/01/20 03:40:18;;;;;;;6.57;4.35;;;0.60;99.90;;;;;;6219087;23;20035;-77
2021/01/20 03:42:44;;;;;;;6.45;4.25;;;0.50;99.90;;;;;;6246058;23;20004;-77
2021/01/20 03:45:10;;;;;;;4.68;3.60;;;0.50;99.90;;;;;;6245961;23;20000;-77
2021/01/20 03:47:35;;;;;;;5.38;4.20;;;0.50;99.90;;;;;;6245790;22;20466;-77
2021/01/20 03:50:01;;;;;;;6.30;4.78;;;0.50;99.90;;;;;;6219245;23;20007;-77
2021/01/20 03:52:26;;;;;;;6.05;4.10;;;0.40;99.90;;;;;;6245934;23;20003;-77
2021/01/20 03:54:52;;;;;;;6.15;4.10;;;0.40;99.90;;;;;;6219037;23;20093;-77
2021/01/20 03:57:17;;;;;;;6.20;4.60;;;0.40;99.90;;;;;;6246075;22;20327;-77
2021/01/20 03:59:43;;;;;;;8.20;3.95;;;0.30;99.90;;;;;;6219227;23;20099;-77
2021/01/20 04:02:08;;;;;;;6.53;4.18;;;0.30;99.90;;;;;;6246062;23;20491;-77
2021/01/20 04:04:34;;;;;;;7.53;4.80;;;0.20;99.90;;;;;;6219009;23;20087;-77
2021/01/20 04:07:03;;;;;;;6.28;4.15;;;0.20;99.90;;;;;;6219217;23;20010;-77
2021/01/20 04:09:29;;;;;;;6.18;4.45;;;0.20;99.90;;;;;;6219361;23;20040;-77
2021/01/20 04:11:55;;;;;;;6.38;4.00;;;0.20;99.90;;;;;;6219196;23;20008;-77
2021/01/20 04:14:21;;;;;;;7.53;4.57;;;0.20;99.90;;;;;;6246025;23;20435;-77
2021/01/20 04:16:47;;;;;;;7.32;5.03;;;0.10;99.90;;;;;;6219096;23;20011;-77
2021/01/20 04:19:13;;;;;;;6.97;4.60;;;0.20;99.90;;;;;;6218878;23;20004;-77
2021/01/20 04:21:38;;;;;;;6.75;4.95;;;0.10;99.90;;;;;;6245811;23;20439;-77
2021/01/20 04:24:04;;;;;;;7.07;4.38;;;0.10;99.90;;;;;;6246019;23;20004;-77
2021/01/20 04:26:30;;;;;;;6.80;4.75;;;0.10;99.90;;;;;;6245750;22;20004;-77
2021/01/20 04:28:55;;;;;;;7.20;4.53;;;0.00;99.90;;;;;;6247972;23;20015;-77
2021/01/20 04:31:21;;;;;;;7.72;4.93;;;0.00;99.90;;;;;;6221498;23;20455;-77
2021/01/20 04:33:46;;;;;;;6.47;4.82;;;-0.10;99.90;;;;;;6222763;23;20038;-77
2021/01/20 04:36:12;;;;;;;6.70;4.80;;;-0.10;99.90;;;;;;6249347;22;20054;-77
2021/01/20 04:38:37;;;;;;;7.85;5.20;;;-0.10;99.90;;;;;;6222557;23;20080;-77
2021/01/20 04:41:03;;;;;;;7.93;5.22;;;-0.10;99.90;;;;;;6221263;23;20004;-77
2021/01/20 04:43:28;;;;;;;7.20;5.38;;;-0.10;99.90;;;;;;6248146;23;20000;-77
2021/01/20 04:45:54;;;;;;;8.70;6.05;;;-0.20;99.90;;;;;;6248019;22;20482;-77
2021/01/20 04:48:20;;;;;;;8.43;5.38;;;-0.20;99.90;;;;;;6221039;23;20008;-77
2021/01/20 04:50:49;;;;;;;11.77;6.35;;;-0.30;99.90;;;;;;6220375;23;20416;-78
2021/01/20 04:53:17;;;;;;;8.95;6.13;;;-0.30;99.90;;;;;;6220240;23;20001;-77
2021/01/20 04:55:44;;;;;;;12.98;7.20;;;-0.40;99.90;;;;;;6245775;23;20000;-77
2021/01/20 04:58:11;;;;;;;10.82;7.38;;;-0.50;99.90;;;;;;6246955;22;20040;-77
2021/01/20 05:00:38;;;;;;;14.57;8.23;;;-0.50;99.90;;;;;;6247261;23;20047;-77
2021/01/20 05:03:08;;;;;;;15.57;9.80;;;-0.60;99.90;;;;;;6246158;23;20343;-77
2021/01/20 05:05:35;;;;;;;18.27;9.38;;;-0.60;99.90;;;;;;6220463;23;20008;-77
2021/01/20 05:08:04;;;;;;;19.48;11.15;;;-0.60;99.90;;;;;;6220522;23;20016;-77
2021/01/20 05:10:30;;;;;;;19.63;10.85;;;-0.70;99.90;;;;;;6221604;23;19996;-77
2021/01/20 05:12:56;;;;;;;20.50;11.00;;;-0.70;99.90;;;;;;6220616;23;20019;-75
2021/01/20 05:15:32;;;;;;;15.27;9.57;;;-0.80;99.90;;;;;;6220325;23;20027;-77
2021/01/20 05:18:04;;;;;;;18.00;11.30;;;-0.80;99.90;;;;;;6220662;23;20010;-77
2021/01/20 05:20:36;;;;;;;17.27;10.40;;;-0.90;99.90;;;;;;6246964;23;20006;-77
2021/01/20 05:23:07;;;;;;;23.50;12.35;;;-0.90;99.90;;;;;;6245999;23;20035;-77
2021/01/20 05:25:42;;;;;;;19.50;12.23;;;-0.90;99.90;;;;;;6245477;23;20011;-77
2021/01/20 05:28:19;;;;;;;21.83;12.82;;;-0.90;99.90;;;;;;6247076;22;20004;-77
2021/01/20 05:30:46;;;;;;;21.63;12.25;;;-0.90;99.90;;;;;;6220429;23;20004;-77
2021/01/20 05:33:15;;;;;;;29.33;14.35;;;-1.00;99.90;;;;;;6220170;23;20004;-77
2021/01/20 05:35:41;;;;;;;22.25;12.20;;;-1.00;99.90;;;;;;6245365;23;20027;-77
2021/01/20 05:38:07;;;;;;;21.85;12.25;;;-1.00;99.90;;;;;;6244872;22;20004;-77
2021/01/20 05:40:34;;;;;;;23.70;12.80;;;-1.10;99.90;;;;;;6246614;23;20063;-77
2021/01/20 05:43:00;;;;;;;23.10;14.23;;;-1.10;99.90;;;;;;6219880;23;20061;-77
2021/01/20 05:45:25;;;;;;;23.85;13.73;;;-1.20;99.90;;;;;;6246846;23;20036;-77
2021/01/20 05:48:08;;;;;;;24.48;13.45;;;-1.20;99.90;;;;;;6268968;22;20035;-77
2021/01/20 05:50:35;;;;;;;25.45;15.40;;;-1.20;99.90;;;;;;6251616;22;19999;-77
2021/01/20 05:53:06;;;;;;;23.55;14.73;;;-1.20;99.90;;;;;;6251686;22;20010;-77
2021/01/20 05:55:32;;;;;;;21.30;12.73;;;-1.30;99.90;;;;;;6252238;22;20090;-77
2021/01/20 05:57:58;;;;;;;25.45;13.85;;;-1.30;99.90;;;;;;6256144;22;20007;-77
2021/01/20 06:00:24;;;;;;;20.58;12.60;;;-1.30;99.90;;;;;;6248145;23;20004;-77
2021/01/20 06:02:53;;;;;;;29.77;14.98;;;-1.30;99.90;;;;;;6221678;23;20008;-77
2021/01/20 06:05:19;;;;;;;26.15;13.82;;;-1.40;99.90;;;;;;6247964;23;20004;-77
2021/01/20 06:07:45;;;;;;;28.27;14.80;;;-1.30;99.90;;;;;;6247464;22;20402;-77
2021/01/20 06:10:11;;;;;;;22.58;13.32;;;-1.30;99.90;;;;;;6247806;23;20027;-77
2021/01/20 06:12:36;;;;;;;20.75;12.95;;;-1.40;99.90;;;;;;6247845;23;20427;-77
2021/01/20 06:15:02;;;;;;;22.42;12.90;;;-1.30;99.90;;;;;;6248088;23;20004;-77
2021/01/20 06:17:35;;;;;;;18.73;12.68;;;-1.40;99.90;;;;;;6247293;22;20008;-75
2021/01/20 06:20:04;;;;;;;21.83;13.63;;;-1.40;99.90;;;;;;6245065;23;20439;-75
2021/01/20 06:22:32;;;;;;;36.13;15.05;;;-1.50;99.90;;;;;;6246733;23;20010;-77
2021/01/20 06:25:04;;;;;;;28.73;16.05;;;-1.50;99.90;;;;;;6247397;23;20063;-76
2021/01/20 06:27:44;;;;;;;25.13;15.13;;;-1.50;99.90;;;;;;6247125;22;20000;-77
2021/01/20 06:30:18;;;;;;;31.30;17.42;;;-1.50;99.90;;;;;;6220504;23;20095;-76
2021/01/20 06:32:47;;;;;;;39.75;17.95;;;-1.50;99.90;;;;;;6247654;23;20353;-77
2021/01/20 06:35:14;;;;;;;36.42;19.98;;;-1.50;99.90;;;;;;6245561;23;20004;-77
2021/01/20 06:37:42;;;;;;;39.17;22.00;;;-1.40;99.90;;;;;;6247076;22;20031;-77
2021/01/20 06:40:31;;;;;;;38.28;20.63;;;-1.40;99.90;;;;;;6245664;23;20004;-77
2021/01/20 06:42:56;;;;;;;42.88;22.88;;;-1.40;99.90;;;;;;6228560;23;20011;-77
2021/01/20 06:45:24;;;;;;;38.15;22.42;;;-1.30;99.90;;;;;;6220354;23;20432;-77
2021/01/20 06:47:58;;;;;;;40.25;22.67;;;-1.30;99.90;;;;;;6247111;22;20008;-77
2021/01/20 06:50:25;;;;;;;55.35;22.92;;;-1.30;99.90;;;;;;6220825;23;20295;-77
2021/01/20 06:53:07;;;;;;;41.80;19.83;;;-1.30;99.90;;;;;;6247479;23;20004;-77
2021/01/20 06:55:35;;;;;;;46.88;21.00;;;-1.30;99.90;;;;;;6246685;23;20004;-76
2021/01/20 06:58:26;;;;;;;41.75;19.63;;;-1.40;99.90;;;;;;6246436;22;20008;-78
2021/01/20 07:01:01;;;;;;;45.33;22.00;;;-1.30;99.90;;;;;;6248641;23;20007;-77
2021/01/20 07:03:42;;;;;;;41.42;22.20;;;-1.30;99.90;;;;;;6220840;23;20035;-77
2021/01/20 07:06:33;;;;;;;50.95;24.60;;;-1.40;99.90;;;;;;6221279;23;20015;-77
2021/01/20 07:08:59;;;;;;;74.28;35.15;;;-1.30;99.90;;;;;;6249033;23;20327;-77
2021/01/20 07:11:24;;;;;;;62.45;30.50;;;-1.30;99.90;;;;;;6221853;23;20486;-77
2021/01/20 07:13:50;;;;;;;67.25;29.73;;;-1.20;99.90;;;;;;6247927;23;20004;-75
2021/01/20 07:16:17;;;;;;;52.08;26.27;;;-1.20;99.90;;;;;;6245609;22;20134;-75
2021/01/20 07:18:45;;;;;;;74.15;32.83;;;-1.10;99.90;;;;;;6222097;23;20011;-77
2021/01/20 07:21:12;;;;;;;67.30;30.88;;;-1.00;99.90;;;;;;6248766;23;20439;-75
2021/01/20 07:23:38;;;;;;;67.75;33.08;;;-0.90;99.90;;;;;;6220690;23;20080;-78
2021/01/20 07:26:04;;;;;;;71.75;33.95;;;-0.80;99.90;;;;;;6246459;23;20011;-75
2021/01/20 07:28:31;;;;;;;92.85;41.03;;;-0.70;99.90;;;;;;6245354;22;20087;-75
2021/01/20 07:31:12;;;;;;;72.82;36.20;;;-0.60;99.90;;;;;;6245766;23;20000;-75
2021/01/20 07:33:49;;;;;;;73.18;36.08;;;-0.50;99.90;;;;;;6245772;23;20000;-75
2021/01/20 07:36:17;;;;;;;85.78;42.00;;;-0.30;99.90;;;;;;6247221;22;20340;-76
2021/01/20 07:38:47;;;;;;;80.20;37.30;;;-0.20;99.90;;;;;;6247276;23;20442;-76
2021/01/20 07:41:21;;;;;;;70.13;35.70;;;-0.10;99.90;;;;;;6247233;23;20079;-76
2021/01/20 07:43:49;;;;;;;102.70;48.30;;;0.10;99.90;;;;;;6245598;23;20034;-76
2021/01/20 07:46:20;;;;;;;116.10;48.78;;;0.20;99.90;;;;;;6247165;22;20026;-77
2021/01/20 07:48:46;;;;;;;118.22;46.13;;;0.40;99.90;;;;;;6247977;23;20067;-76
2021/01/20 07:51:17;;;;;;;100.68;42.10;;;0.60;99.90;;;;;;6248560;23;20443;-77
2021/01/20 07:54:04;;;;;;;113.55;46.83;;;0.70;99.90;;;;;;6248165;23;20004;-76
2021/01/20 07:56:31;;;;;;;84.13;37.30;;;0.90;99.90;;;;;;6247796;22;20006;-77
2021/01/20 07:59:14;;;;;;;81.63;33.28;;;1.00;99.90;;;;;;6248027;23;20075;-76
2021/01/20 08:01:40;;;;;;;60.70;29.63;;;1.20;99.90;;;;;;6250272;23;20011;-76
2021/01/20 08:04:17;;;;;;;59.67;30.60;;;1.40;99.90;;;;;;6250762;23;20000;-76
2021/01/20 08:06:43;;;;;;;64.90;30.50;;;1.50;99.90;;;;;;6249943;22;20033;-76
2021/01/20 08:09:08;;;;;;;86.85;41.83;;;1.70;99.90;;;;;;6223330;23;20004;-76
2021/01/20 08:11:35;;;;;;;63.28;28.92;;;1.80;99.90;;;;;;6223334;23;20000;-77
2021/01/20 08:14:02;;;;;;;39.30;20.35;;;2.00;99.90;;;;;;6248820;22;20000;-76
2021/01/20 08:16:29;;;;;;;38.15;21.23;;;2.00;99.90;;;;;;6250598;22;19996;-77
2021/01/20 08:18:55;;;;;;;39.10;18.35;;;2.20;99.90;;;;;;6247948;23;20075;-76
2021/01/20 08:21:21;;;;;;;49.55;20.15;;;2.40;99.90;;;;;;6248974;23;20000;-76
2021/01/20 08:24:01;;;;;;;37.15;19.25;;;2.60;99.90;;;;;;6249459;23;20015;-76
2021/01/20 08:26:29;;;;;;;31.58;17.15;;;2.80;99.90;;;;;;6248357;22;20008;-76
2021/01/20 08:29:12;;;;;;;29.60;15.88;;;3.00;99.90;;;;;;6249652;23;20350;-77
2021/01/20 08:31:38;;;;;;;;;;;3.20;99.90;;;;;;6225013;23;20027;-78
2021/01/20 08:34:24;;;;;;;30.63;15.25;;;3.50;99.90;;;;;;6252183;23;19900;-78
2021/01/20 08:37:07;;;;;;;32.50;16.85;;;3.70;99.90;;;;;;6252241;22;20432;-78
2021/01/20 08:39:38;;;;;;;26.35;14.57;;;4.00;99.90;;;;;;6254252;23;20007;-78
2021/01/20 08:42:26;;;;;;;23.85;12.63;;;4.20;99.90;;;;;;6226658;23;20057;-77
2021/01/20 08:45:11;;;;;;;19.17;11.15;;;4.60;99.90;;;;;;6225750;23;20085;-78
2021/01/20 08:47:50;;;;;;;27.77;13.57;;;4.90;99.90;;;;;;6250567;22;20019;-78
2021/01/20 08:50:35;;;;;;;47.33;22.48;;;5.30;99.90;;;;;;6252035;23;20020;-78
2021/01/20 08:53:03;;;;;;;31.55;17.20;;;5.80;99.90;;;;;;6254796;23;20000;-78
2021/01/20 08:55:37;;;;;;;14.60;9.45;;;6.50;99.90;;;;;;6227561;23;20007;-77
2021/01/20 08:58:26;;;;;;;16.23;9.60;;;7.50;99.90;;;;;;6227760;23;20026;-78
2021/01/20 09:01:00;;;;;;;15.32;9.75;;;8.70;99.90;;;;;;6254193;23;20008;-78
2021/01/20 09:03:53;;;;;;;10.82;8.00;;;9.60;99.90;;;;;;6253379;23;20119;-78
2021/01/20 09:06:18;;;;;;;10.68;7.82;;;10.30;99.90;;;;;;6230394;22;20004;-78
2021/01/20 09:08:44;;;;;;;14.43;8.40;;;10.40;99.90;;;;;;6256727;23;20011;-78
2021/01/20 09:11:09;;;;;;;13.13;8.30;;;10.40;99.90;;;;;;6255297;23;20031;-78
2021/01/20 09:13:35;;;;;;;12.60;9.05;;;10.20;99.90;;;;;;6252998;23;19996;-77
2021/01/20 09:16:01;;;;;;;16.00;8.95;;;9.60;99.90;;;;;;6251194;23;20008;-77
2021/01/20 09:18:26;;;;;;;17.45;11.10;;;9.10;99.90;;;;;;6252734;22;20060;-77
2021/01/20 09:20:53;;;;;;;18.85;10.43;;;8.20;99.90;;;;;;6252416;23;20053;-77
2021/01/20 09:23:19;;;;;;;21.20;12.52;;;8.10;99.90;;;;;;6252016;23;20001;-77
2021/01/20 09:25:45;;;;;;;18.40;12.27;;;8.30;99.90;;;;;;6248659;23;20000;-77
2021/01/20 09:28:11;;;;;;;18.17;10.95;;;8.70;99.90;;;;;;6248581;22;20085;-77
2021/01/20 09:30:37;;;;;;;13.50;8.88;;;9.30;99.90;;;;;;6222115;23;20004;-77
2021/01/20 09:33:03;;;;;;;14.63;9.38;;;10.00;99.90;;;;;;6248925;23;20063;-78
2021/01/20 09:35:30;;;;;;;12.38;8.93;;;10.40;99.90;;;;;;6246935;23;20004;-77
2021/01/20 09:37:55;;;;;;;13.00;8.30;;;10.80;99.90;;;;;;6248578;22;20063;-78
2021/01/20 09:40:23;;;;;;;13.20;8.88;;;11.50;95.90;;;;;;6221662;23;20008;-77
2021/01/20 09:42:50;;;;;;;11.80;8.30;;;12.00;92.40;;;;;;6247243;23;20008;-75
2021/01/20 09:45:18;;;;;;;12.32;8.25;;;12.50;91.20;;;;;;6246650;23;20398;-78
2021/01/20 09:47:46;;;;;;;10.30;7.57;;;13.20;82.60;;;;;;6248261;22;20015;-77
2021/01/20 09:50:14;;;;;;;13.15;9.05;;;14.00;80.10;;;;;;6246829;23;20087;-77
2021/01/20 09:52:40;;;;;;;11.45;8.10;;;14.60;74.20;;;;;;6246697;23;20371;-77
2021/01/20 09:55:06;;;;;;;11.43;7.40;;;15.40;69.80;;;;;;6221466;23;20038;-78
2021/01/20 09:57:32;;;;;;;11.85;7.22;;;15.80;65.90;;;;;;6248015;22;20032;-77
2021/01/20 09:59:58;;;;;;;10.50;7.32;;;16.90;62.50;;;;;;6221664;23;20008;-78
2021/01/20 10:02:24;;;;;;;10.13;7.25;;;18.10;58.10;;;;;;6246821;23;20394;-75
2021/01/20 10:04:49;;;;;;;12.07;7.10;;;19.40;53.60;;;;;;6220070;23;20000;-76
2021/01/20 10:07:16;;;;;;;8.55;7.05;;;20.70;50.20;;;;;;6219700;23;20007;-75
2021/01/20 10:09:42;;;;;;;11.07;7.68;;;21.80;46.30;;;;;;6246888;23;20004;-76
2021/01/20 10:12:10;;;;;;;9.40;6.80;;;22.60;43.70;;;;;;6247057;23;20015;-76
2021/01/20 10:14:36;;;;;;;9.65;6.95;;;22.90;42.70;;;;;;6246561;23;20339;-76
2021/01/20 10:17:03;;;;;;;7.82;6.20;;;23.20;42.20;;;;;;6246989;22;20004;-76
2021/01/20 10:19:28;;;;;;;8.48;5.93;;;23.50;41.00;;;;;;6247103;23;20000;-76
2021/01/20 10:21:54;;;;;;;8.25;7.13;;;23.90;38.80;;;;;;6219678;23;20490;-76
2021/01/20 10:24:19;;;;;;;7.35;6.65;;;24.20;39.40;;;;;;6246287;23;19997;-76
2021/01/20 10:26:45;;;;;;;8.25;6.65;;;24.80;37.60;;;;;;6219742;23;20435;-76
2021/01/20 10:29:11;;;;;;;9.25;8.18;;;25.50;37.90;;;;;;6246746;23;20015;-76
2021/01/20 10:31:38;;;;;;;8.57;6.13;;;25.40;35.20;;;;;;6219785;23;20428;-76
2021/01/20 10:34:05;;;;;;;7.35;5.90;;;25.50;35.40;;;;;;6246284;23;19992;-76
2021/01/20 10:36:31;;;;;;;7.45;6.07;;;25.30;34.50;;;;;;6244767;22;20000;-76
2021/01/20 10:38:57;;;;;;;9.93;8.38;;;25.30;35.50;;;;;;6246761;23;20004;-77
2021/01/20 10:41:23;;;;;;;7.38;6.65;;;25.40;35.70;;;;;;6246625;23;20393;-77
2021/01/20 10:43:51;;;;;;;8.98;7.95;;;25.10;35.60;;;;;;6246321;23;20031;-76
2021/01/20 10:46:17;;;;;;;13.13;10.65;;;24.70;36.40;;;;;;6246242;22;20435;-76
2021/01/20 10:48:44;;;;;;;13.45;11.35;;;24.10;36.00;;;;;;6244728;23;20040;-76
2021/01/20 10:51:10;;;;;;;13.00;10.75;;;23.40;37.00;;;;;;6246379;23;20004;-76
2021/01/20 10:53:40;;;;;;;13.40;9.88;;;23.10;38.80;;;;;;6246422;23;20004;-77
2021/01/20 10:56:09;;;;;;;14.10;11.23;;;23.20;38.80;;;;;;6245379;23;20000;-77
2021/01/20 10:58:36;;;;;;;15.93;10.65;;;22.90;38.20;;;;;;6246373;23;20015;-76
2021/01/20 11:01:03;;;;;;;14.77;11.20;;;22.50;40.00;;;;;;6245327;23;20320;-76
2021/01/20 11:03:29;;;;;;;14.27;10.93;;;21.60;40.30;;;;;;6245003;23;20023;-76
2021/01/20 11:05:55;;;;;;;15.57;9.82;;;20.80;42.90;;;;;;6246613;23;20008;-77
2021/01/20 11:08:21;;;;;;;13.32;9.77;;;21.40;41.90;;;;;;6246331;22;20538;-77
2021/01/20 11:10:46;;;;;;;14.02;10.27;;;22.00;40.90;;;;;;6246790;23;20067;-77
2021/01/20 11:13:12;;;;;;;13.27;11.68;;;21.80;41.00;;;;;;6246710;23;20043;-79
2021/01/20 11:15:45;;;;;;;13.57;10.40;;;21.90;41.00;;;;;;6220615;23;20004;-77
2021/01/20 11:18:13;;;;;;;10.70;9.60;;;22.10;40.20;;;;;;6246773;22;20003;-77
2021/01/20 11:20:38;;;;;;;12.27;10.40;;;22.10;40.70;;;;;;6220861;23;20064;-77
2021/01/20 11:23:04;;;;;;;13.77;11.35;;;22.20;40.40;;;;;;6219593;23;20003;-77
2021/01/20 11:25:32;;;;;;;10.40;9.27;;;22.20;40.20;;;;;;6244825;23;20015;-77
2021/01/20 11:28:01;;;;;;;13.90;10.43;;;22.50;40.50;;;;;;6245934;22;20010;-77
2021/01/20 11:30:27;;;;;;;13.70;10.23;;;23.20;39.20;;;;;;6219261;23;20440;-77
2021/01/20 11:32:53;;;;;;;8.45;7.05;;;23.60;37.80;;;;;;6219288;23;20027;-77
2021/01/20 11:35:19;;;;;;;8.68;7.07;;;23.50;38.00;;;;;;6219284;23;20051;-77
2021/01/20 11:37:44;;;;;;;11.77;8.70;;;23.30;38.70;;;;;;6245662;22;20004;-76
2021/01/20 11:40:11;;;;;;;11.40;8.55;;;22.90;38.90;;;;;;6246220;23;20071;-76
2021/01/20 11:42:36;;;;;;;10.35;7.88;;;22.70;39.10;;;;;;6244379;23;20039;-77
2021/01/20 11:45:04;;;;;;;11.52;7.18;;;22.40;39.40;;;;;;6219250;23;20427;-80
2021/01/20 11:47:29;;;;;;;8.55;6.88;;;22.20;39.70;;;;;;6256519;22;20036;-76
2021/01/20 11:49:55;;;;;;;8.23;5.65;;;22.70;39.40;;;;;;6249628;22;20081;-76
2021/01/20 11:52:21;;;;;;;7.80;6.35;;;23.50;38.30;;;;;;6249224;22;20003;-76
2021/01/20 11:54:47;;;;;;;6.95;5.38;;;24.20;36.50;;;;;;6276287;22;20070;-77
2021/01/20 11:57:13;;;;;;;6.45;5.20;;;25.00;34.90;;;;;;6241716;23;20008;-76
2021/01/20 11:59:38;;;;;;;8.55;5.97;;;25.60;33.60;;;;;;6218935;23;20450;-75
2021/01/20 12:02:04;;;;;;;5.93;5.22;;;25.90;32.40;;;;;;6218725;23;20007;-75
2021/01/20 12:04:30;;;;;;;6.40;4.70;;;26.30;32.30;;;;;;6245501;23;20004;-76
2021/01/20 12:06:56;;;;;;;7.35;4.95;;;26.00;32.20;;;;;;6245553;22;20076;-76
2021/01/20 12:09:22;;;;;;;7.30;6.38;;;25.60;33.30;;;;;;6218619;23;20391;-75
2021/01/20 12:11:48;;;;;;;11.25;6.90;;;25.20;34.20;;;;;;6218846;23;20004;-75
2021/01/20 12:14:14;;;;;;;7.78;6.45;;;24.00;35.50;;;;;;6244026;23;20053;-75
2021/01/20 12:16:40;;;;;;;11.15;8.45;;;23.30;37.40;;;;;;6243844;22;20004;-76
2021/01/20 12:19:07;;;;;;;11.40;8.65;;;22.60;39.40;;;;;;6245842;23;20000;-76
2021/01/20 12:21:33;;;;;;;9.60;7.95;;;22.00;40.80;;;;;;6245693;23;20008;-75
2021/01/20 12:23:58;;;;;;;11.48;8.65;;;21.30;41.70;;;;;;6245368;23;20081;-76
2021/01/20 12:26:24;;;;;;;11.00;8.98;;;20.90;42.20;;;;;;6245413;23;20087;-75
2021/01/20 12:28:50;;;;;;;11.82;8.00;;;20.30;43.20;;;;;;6245171;22;20004;-75
2021/01/20 12:31:15;;;;;;;14.00;8.20;;;19.80;44.40;;;;;;6245370;23;20045;-75
2021/01/20 12:33:41;;;;;;;11.25;6.97;;;19.30;45.60;;;;;;6245342;23;20004;-75
2021/01/20 12:36:07;;;;;;;10.80;7.97;;;18.60;46.80;;;;;;6245381;23;19996;-75
2021/01/20 12:38:33;;;;;;;9.50;7.18;;;18.50;47.50;;;;;;6245373;22;20092;-76
2021/01/20 12:40:58;;;;;;;8.25;6.47;;;18.70;47.20;;;;;;6245445;23;20008;-75
2021/01/20 12:43:24;;;;;;;9.85;6.82;;;19.50;45.70;;;;;;6245328;23;20007;-75
2021/01/20 12:45:49;;;;;;;11.77;7.85;;;20.20;44.50;;;;;;6218530;23;20086;-75
2021/01/20 12:48:16;;;;;;;9.02;6.45;;;20.30;43.20;;;;;;6233781;23;20317;-75